sensor_id;sensor_type;location;lat;lon;timestamp;pressure;altitude;pressure_sealevel;temperature;humidity
11525;BME280;5819;49.648;8.330;2023-05-07T00:00:58;100327.41;;;15.82;100.00
11525;BME280;5819;49.648;8.330;2023-05-07T00:03:26;100323.38;;;15.77;100.00
11525;BME280;5819;49.648;8.330;2023-05-07T00:05:55;100320.78;;;15.77;100.00
11525;BME280;5819;49.648;8.330;2023-05-07T00:08:23;100317.00;;;15.81;100.00
11525;BME280;5819;49.648;8.330;2023-05-07T00:10:51;100317.91;;;15.67;100.00
11525;BME280;5819;49.648;8.330;2023-05-07T00:13:18;100313.03;;;15.61;100.00
11525;BME280;5819;49.648;8.330;2023-05-07T00:15:48;100313.44;;;15.55;100.00
11525;BME280;5819;49.648;8.330;2023-05-07T00:18:16;100306.81;;;15.50;100.00
11525;BME280;5819;49.648;8.330;2023-05-07T00:20:47;100307.16;;;15.43;100.00
11525;BME280;5819;49.648;8.330;2023-05-07T00:23:15;100308.88;;;15.44;100.00
11525;BME280;5819;49.648;8.330;2023-05-07T00:25:42;100315.41;;;15.37;100.00
11525;BME280;5819;49.648;8.330;2023-05-07T00:28:10;100320.28;;;15.29;100.00
11525;BME280;5819;49.648;8.330;2023-05-07T00:30:38;100316.81;;;15.29;100.00
11525;BME280;5819;49.648;8.330;2023-05-07T00:33:07;100318.78;;;15.25;100.00
11525;BME280;5819;49.648;8.330;2023-05-07T00:35:35;100319.91;;;15.21;100.00
11525;BME280;5819;49.648;8.330;2023-05-07T00:38:03;100321.69;;;15.21;100.00
11525;BME280;5819;49.648;8.330;2023-05-07T00:40:31;100319.84;;;15.23;100.00
11525;BME280;5819;49.648;8.330;2023-05-07T00:42:59;100318.13;;;15.22;100.00
11525;BME280;5819;49.648;8.330;2023-05-07T00:45:28;100318.53;;;15.16;100.00
11525;BME280;5819;49.648;8.330;2023-05-07T00:47:58;100311.69;;;15.13;100.00
11525;BME280;5819;49.648;8.330;2023-05-07T00:50:29;100307.09;;;15.17;100.00
11525;BME280;5819;49.648;8.330;2023-05-07T00:52:59;100309.47;;;15.07;100.00
11525;BME280;5819;49.648;8.330;2023-05-07T00:55:28;100304.41;;;15.04;100.00
11525;BME280;5819;49.648;8.330;2023-05-07T00:57:57;100307.41;;;14.98;100.00
11525;BME280;5819;49.648;8.330;2023-05-07T01:00:25;100300.66;;;14.94;100.00
11525;BME280;5819;49.648;8.330;2023-05-07T01:02:54;100304.31;;;14.91;100.00
11525;BME280;5819;49.648;8.330;2023-05-07T01:05:28;100300.19;;;14.87;100.00
11525;BME280;5819;49.648;8.330;2023-05-07T01:08:01;100293.19;;;14.88;100.00
11525;BME280;5819;49.648;8.330;2023-05-07T01:10:32;100299.56;;;14.84;100.00
11525;BME280;5819;49.648;8.330;2023-05-07T01:13:01;100298.13;;;14.92;100.00
11525;BME280;5819;49.648;8.330;2023-05-07T01:15:29;100291.78;;;14.82;100.00
11525;BME280;5819;49.648;8.330;2023-05-07T01:17:58;100288.88;;;14.87;100.00
11525;BME280;5819;49.648;8.330;2023-05-07T01:20:33;100297.88;;;14.83;100.00
11525;BME280;5819;49.648;8.330;2023-05-07T01:23:03;100299.34;;;15.01;100.00
11525;BME280;5819;49.648;8.330;2023-05-07T01:25:31;100293.56;;;14.96;100.00
11525;BME280;5819;49.648;8.330;2023-05-07T01:28:01;100288.31;;;14.96;100.00
11525;BME280;5819;49.648;8.330;2023-05-07T01:30:34;100285.13;;;14.91;100.00
11525;BME280;5819;49.648;8.330;2023-05-07T01:33:09;100289.25;;;14.95;100.00
11525;BME280;5819;49.648;8.330;2023-05-07T01:35:45;100284.69;;;14.84;100.00
11525;BME280;5819;49.648;8.330;2023-05-07T01:38:18;100288.13;;;14.85;100.00
11525;BME280;5819;49.648;8.330;2023-05-07T01:40:46;100279.88;;;14.77;100.00
11525;BME280;5819;49.648;8.330;2023-05-07T01:43:14;100278.69;;;14.82;100.00
11525;BME280;5819;49.648;8.330;2023-05-07T01:45:43;100280.09;;;14.88;100.00
11525;BME280;5819;49.648;8.330;2023-05-07T01:48:12;100277.25;;;14.77;100.00
11525;BME280;5819;49.648;8.330;2023-05-07T01:50:42;100283.53;;;14.74;100.00
11525;BME280;5819;49.648;8.330;2023-05-07T01:53:11;100286.94;;;14.76;100.00
11525;BME280;5819;49.648;8.330;2023-05-07T01:55:41;100279.44;;;14.70;100.00
11525;BME280;5819;49.648;8.330;2023-05-07T01:58:09;100284.94;;;14.66;100.00
11525;BME280;5819;49.648;8.330;2023-05-07T02:00:37;100284.47;;;14.73;100.00
11525;BME280;5819;49.648;8.330;2023-05-07T02:03:06;100284.75;;;14.69;100.00
11525;BME280;5819;49.648;8.330;2023-05-07T02:05:42;100282.88;;;14.71;100.00
11525;BME280;5819;49.648;8.330;2023-05-07T02:08:18;100278.22;;;14.76;100.00
11525;BME280;5819;49.648;8.330;2023-05-07T02:10:47;100281.38;;;14.81;100.00
11525;BME280;5819;49.648;8.330;2023-05-07T02:13:16;100285.31;;;14.74;100.00
11525;BME280;5819;49.648;8.330;2023-05-07T02:15:44;100291.78;;;14.68;100.00
11525;BME280;5819;49.648;8.330;2023-05-07T02:18:16;100291.09;;;14.65;100.00
11525;BME280;5819;49.648;8.330;2023-05-07T02:20:44;100296.78;;;14.57;100.00
11525;BME280;5819;49.648;8.330;2023-05-07T02:23:13;100290.44;;;14.47;100.00
11525;BME280;5819;49.648;8.330;2023-05-07T02:25:41;100298.19;;;14.48;100.00
11525;BME280;5819;49.648;8.330;2023-05-07T02:28:10;100300.44;;;14.55;100.00
11525;BME280;5819;49.648;8.330;2023-05-07T02:30:55;100297.91;;;14.53;100.00
11525;BME280;5819;49.648;8.330;2023-05-07T02:33:25;100300.78;;;14.48;100.00
11525;BME280;5819;49.648;8.330;2023-05-07T02:35:53;100299.03;;;14.49;100.00
11525;BME280;5819;49.648;8.330;2023-05-07T02:38:21;100301.19;;;14.42;100.00
11525;BME280;5819;49.648;8.330;2023-05-07T02:40:49;100308.09;;;14.43;100.00
11525;BME280;5819;49.648;8.330;2023-05-07T02:43:18;100306.03;;;14.48;100.00
11525;BME280;5819;49.648;8.330;2023-05-07T02:45:48;100300.41;;;14.40;100.00
11525;BME280;5819;49.648;8.330;2023-05-07T02:48:16;100304.06;;;14.38;100.00
11525;BME280;5819;49.648;8.330;2023-05-07T02:50:44;100303.38;;;14.34;100.00
11525;BME280;5819;49.648;8.330;2023-05-07T02:53:13;100296.44;;;14.33;100.00
11525;BME280;5819;49.648;8.330;2023-05-07T02:55:42;100296.16;;;14.24;100.00
11525;BME280;5819;49.648;8.330;2023-05-07T02:58:09;100298.47;;;14.28;100.00
11525;BME280;5819;49.648;8.330;2023-05-07T03:00:40;100307.44;;;14.24;100.00
11525;BME280;5819;49.648;8.330;2023-05-07T03:03:19;100295.13;;;14.26;100.00
11525;BME280;5819;49.648;8.330;2023-05-07T03:05:48;100300.44;;;14.25;100.00
11525;BME280;5819;49.648;8.330;2023-05-07T03:08:16;100295.84;;;14.28;100.00
11525;BME280;5819;49.648;8.330;2023-05-07T03:10:45;100297.16;;;14.21;100.00
11525;BME280;5819;49.648;8.330;2023-05-07T03:13:12;100285.38;;;14.14;100.00
11525;BME280;5819;49.648;8.330;2023-05-07T03:15:42;100283.34;;;14.19;100.00
11525;BME280;5819;49.648;8.330;2023-05-07T03:18:10;100279.28;;;14.14;100.00
11525;BME280;5819;49.648;8.330;2023-05-07T03:20:38;100272.09;;;14.17;100.00
11525;BME280;5819;49.648;8.330;2023-05-07T03:23:06;100271.84;;;14.22;100.00
11525;BME280;5819;49.648;8.330;2023-05-07T03:25:35;100267.59;;;14.05;100.00
11525;BME280;5819;49.648;8.330;2023-05-07T03:28:03;100270.53;;;14.15;100.00
11525;BME280;5819;49.648;8.330;2023-05-07T03:30:45;100268.34;;;14.07;100.00
11525;BME280;5819;49.648;8.330;2023-05-07T03:33:13;100262.47;;;14.03;100.00
11525;BME280;5819;49.648;8.330;2023-05-07T03:35:42;100261.16;;;14.11;100.00
11525;BME280;5819;49.648;8.330;2023-05-07T03:38:13;100265.06;;;14.03;100.00
11525;BME280;5819;49.648;8.330;2023-05-07T03:40:41;100258.06;;;14.04;100.00
11525;BME280;5819;49.648;8.330;2023-05-07T03:43:10;100262.47;;;14.03;100.00
11525;BME280;5819;49.648;8.330;2023-05-07T03:45:45;100262.34;;;14.05;100.00
11525;BME280;5819;49.648;8.330;2023-05-07T03:48:20;100260.84;;;14.01;100.00
11525;BME280;5819;49.648;8.330;2023-05-07T03:50:50;100266.00;;;14.02;100.00
11525;BME280;5819;49.648;8.330;2023-05-07T03:53:19;100270.13;;;14.06;100.00
11525;BME280;5819;49.648;8.330;2023-05-07T03:55:47;100271.81;;;14.07;100.00
11525;BME280;5819;49.648;8.330;2023-05-07T03:58:16;100271.03;;;14.05;100.00
11525;BME280;5819;49.648;8.330;2023-05-07T04:00:45;100271.03;;;14.05;100.00
11525;BME280;5819;49.648;8.330;2023-05-07T04:03:26;100275.16;;;14.10;100.00
11525;BME280;5819;49.648;8.330;2023-05-07T04:05:57;100282.03;;;14.12;100.00
11525;BME280;5819;49.648;8.330;2023-05-07T04:08:25;100279.09;;;14.17;100.00
11525;BME280;5819;49.648;8.330;2023-05-07T04:10:55;100280.34;;;14.25;100.00
11525;BME280;5819;49.648;8.330;2023-05-07T04:13:25;100290.34;;;14.19;100.00
11525;BME280;5819;49.648;8.330;2023-05-07T04:15:55;100291.94;;;14.21;100.00
11525;BME280;5819;49.648;8.330;2023-05-07T04:18:25;100285.78;;;14.22;100.00
11525;BME280;5819;49.648;8.330;2023-05-07T04:20:53;100279.81;;;14.20;100.00
11525;BME280;5819;49.648;8.330;2023-05-07T04:23:21;100291.41;;;14.30;100.00
11525;BME280;5819;49.648;8.330;2023-05-07T04:25:50;100290.16;;;14.22;100.00
11525;BME280;5819;49.648;8.330;2023-05-07T04:28:27;100297.09;;;14.23;100.00
11525;BME280;5819;49.648;8.330;2023-05-07T04:30:56;100290.06;;;14.23;100.00
11525;BME280;5819;49.648;8.330;2023-05-07T04:33:24;100289.13;;;14.24;100.00
11525;BME280;5819;49.648;8.330;2023-05-07T04:35:51;100292.13;;;14.32;100.00
11525;BME280;5819;49.648;8.330;2023-05-07T04:38:19;100297.75;;;14.26;100.00
11525;BME280;5819;49.648;8.330;2023-05-07T04:40:50;100290.38;;;14.33;100.00
11525;BME280;5819;49.648;8.330;2023-05-07T04:43:22;100295.47;;;14.36;100.00
11525;BME280;5819;49.648;8.330;2023-05-07T04:45:51;100297.97;;;14.37;100.00
11525;BME280;5819;49.648;8.330;2023-05-07T04:48:23;100301.25;;;14.41;100.00
11525;BME280;5819;49.648;8.330;2023-05-07T04:50:52;100298.47;;;14.44;100.00
11525;BME280;5819;49.648;8.330;2023-05-07T04:53:21;100304.84;;;14.54;100.00
11525;BME280;5819;49.648;8.330;2023-05-07T04:55:55;100299.03;;;14.49;100.00
11525;BME280;5819;49.648;8.330;2023-05-07T04:58:24;100305.41;;;14.59;100.00
11525;BME280;5819;49.648;8.330;2023-05-07T05:00:52;100301.50;;;14.66;100.00
11525;BME280;5819;49.648;8.330;2023-05-07T05:03:20;100301.88;;;14.74;100.00
11525;BME280;5819;49.648;8.330;2023-05-07T05:05:50;100307.69;;;14.79;100.00
11525;BME280;5819;49.648;8.330;2023-05-07T05:08:20;100312.06;;;14.79;100.00
11525;BME280;5819;49.648;8.330;2023-05-07T05:10:50;100308.78;;;14.89;100.00
11525;BME280;5819;49.648;8.330;2023-05-07T05:13:18;100311.22;;;14.92;100.00
11525;BME280;5819;49.648;8.330;2023-05-07T05:15:46;100314.81;;;14.91;100.00
11525;BME280;5819;49.648;8.330;2023-05-07T05:18:14;100316.09;;;14.98;100.00
11525;BME280;5819;49.648;8.330;2023-05-07T05:20:42;100314.78;;;15.06;100.00
11525;BME280;5819;49.648;8.330;2023-05-07T05:23:13;100314.78;;;15.06;100.00
11525;BME280;5819;49.648;8.330;2023-05-07T05:25:41;100313.84;;;15.07;100.00
11525;BME280;5819;49.648;8.330;2023-05-07T05:28:11;100314.78;;;15.06;100.00
11525;BME280;5819;49.648;8.330;2023-05-07T05:30:39;100316.56;;;15.19;100.00
11525;BME280;5819;49.648;8.330;2023-05-07T05:33:08;100311.41;;;15.32;100.00
11525;BME280;5819;49.648;8.330;2023-05-07T05:35:36;100327.13;;;15.32;100.00
11525;BME280;5819;49.648;8.330;2023-05-07T05:38:09;100329.91;;;15.29;100.00
11525;BME280;5819;49.648;8.330;2023-05-07T05:40:39;100327.50;;;15.26;100.00
11525;BME280;5819;49.648;8.330;2023-05-07T05:43:07;100323.03;;;15.28;100.00
11525;BME280;5819;49.648;8.330;2023-05-07T05:45:37;100323.09;;;15.26;100.00
11525;BME280;5819;49.648;8.330;2023-05-07T05:48:05;100327.97;;;15.18;100.00
11525;BME280;5819;49.648;8.330;2023-05-07T05:50:35;100330.13;;;15.26;100.00
11525;BME280;5819;49.648;8.330;2023-05-07T05:53:04;100331.03;;;15.25;100.00
11525;BME280;5819;49.648;8.330;2023-05-07T05:55:32;100325.34;;;15.32;100.00
11525;BME280;5819;49.648;8.330;2023-05-07T05:58:05;100327.13;;;15.32;100.00
11525;BME280;5819;49.648;8.330;2023-05-07T06:00:37;100321.88;;;15.32;100.00
11525;BME280;5819;49.648;8.330;2023-05-07T06:03:06;100326.16;;;15.61;100.00
11525;BME280;5819;49.648;8.330;2023-05-07T06:05:35;100318.91;;;15.52;100.00
11525;BME280;5819;49.648;8.330;2023-05-07T06:08:04;100322.38;;;15.53;100.00
11525;BME280;5819;49.648;8.330;2023-05-07T06:10:35;100327.69;;;15.51;100.00
11525;BME280;5819;49.648;8.330;2023-05-07T06:13:07;100325.78;;;15.53;100.00
11525;BME280;5819;49.648;8.330;2023-05-07T06:15:36;100315.00;;;15.72;100.00
11525;BME280;5819;49.648;8.330;2023-05-07T06:18:09;100324.66;;;15.71;100.00
11525;BME280;5819;49.648;8.330;2023-05-07T06:20:36;100325.56;;;15.70;100.00
11525;BME280;5819;49.648;8.330;2023-05-07T06:23:10;100324.72;;;15.70;100.00
11525;BME280;5819;49.648;8.330;2023-05-07T06:25:38;100328.13;;;15.72;100.00
11525;BME280;5819;49.648;8.330;2023-05-07T06:28:08;100328.06;;;15.86;100.00
11525;BME280;5819;49.648;8.330;2023-05-07T06:30:40;100340.16;;;15.88;100.00
11525;BME280;5819;49.648;8.330;2023-05-07T06:33:09;100336.03;;;15.84;100.00
11525;BME280;5819;49.648;8.330;2023-05-07T06:35:37;100348.84;;;15.89;100.00
11525;BME280;5819;49.648;8.330;2023-05-07T06:38:05;100344.44;;;15.89;100.00
11525;BME280;5819;49.648;8.330;2023-05-07T06:40:33;100341.09;;;15.87;100.00
11525;BME280;5819;49.648;8.330;2023-05-07T06:43:03;100342.22;;;15.83;100.00
11525;BME280;5819;49.648;8.330;2023-05-07T06:45:46;100339.38;;;16.01;100.00
11525;BME280;5819;49.648;8.330;2023-05-07T06:48:15;100334.19;;;15.99;100.00
11525;BME280;5819;49.648;8.330;2023-05-07T06:50:59;100325.44;;;16.25;100.00
11525;BME280;5819;49.648;8.330;2023-05-07T06:53:29;100322.44;;;16.31;100.00
11525;BME280;5819;49.648;8.330;2023-05-07T06:55:59;100327.56;;;16.33;100.00
11525;BME280;5819;49.648;8.330;2023-05-07T06:58:27;100326.63;;;16.34;100.00
11525;BME280;5819;49.648;8.330;2023-05-07T07:00:58;100326.75;;;16.32;100.00
11525;BME280;5819;49.648;8.330;2023-05-07T07:03:26;100327.16;;;16.39;100.00
11525;BME280;5819;49.648;8.330;2023-05-07T07:05:55;100334.00;;;16.54;100.00
11525;BME280;5819;49.648;8.330;2023-05-07T07:08:23;100331.66;;;16.76;100.00
11525;BME280;5819;49.648;8.330;2023-05-07T07:10:51;100329.34;;;16.84;100.00
11525;BME280;5819;49.648;8.330;2023-05-07T07:13:20;100329.88;;;16.77;100.00
11525;BME280;5819;49.648;8.330;2023-05-07T07:15:47;100335.00;;;16.78;100.00
11525;BME280;5819;49.648;8.330;2023-05-07T07:18:18;100331.75;;;16.75;100.00
11525;BME280;5819;49.648;8.330;2023-05-07T07:20:47;100335.44;;;16.72;100.00
11525;BME280;5819;49.648;8.330;2023-05-07T07:23:15;100346.03;;;16.71;100.00
11525;BME280;5819;49.648;8.330;2023-05-07T07:25:43;100342.81;;;16.80;100.00
11525;BME280;5819;49.648;8.330;2023-05-07T07:28:11;100335.97;;;16.90;100.00
11525;BME280;5819;49.648;8.330;2023-05-07T07:30:39;100344.38;;;16.82;100.00
11525;BME280;5819;49.648;8.330;2023-05-07T07:33:08;100349.00;;;16.92;100.00
11525;BME280;5819;49.648;8.330;2023-05-07T07:35:38;100351.72;;;16.77;100.00
11525;BME280;5819;49.648;8.330;2023-05-07T07:38:06;100358.25;;;16.84;100.00
11525;BME280;5819;49.648;8.330;2023-05-07T07:40:35;100356.16;;;16.77;100.00
11525;BME280;5819;49.648;8.330;2023-05-07T07:43:05;100356.47;;;16.72;100.00
11525;BME280;5819;49.648;8.330;2023-05-07T07:45:33;100357.16;;;16.62;100.00
11525;BME280;5819;49.648;8.330;2023-05-07T07:48:01;100358.59;;;16.53;100.00
11525;BME280;5819;49.648;8.330;2023-05-07T07:50:33;100359.34;;;16.55;100.00
11525;BME280;5819;49.648;8.330;2023-05-07T07:53:14;100356.38;;;16.47;100.00
11525;BME280;5819;49.648;8.330;2023-05-07T07:55:43;100366.88;;;16.47;100.00
11525;BME280;5819;49.648;8.330;2023-05-07T07:58:15;100362.53;;;16.60;100.00
11525;BME280;5819;49.648;8.330;2023-05-07T08:00:43;100360.63;;;16.62;100.00
11525;BME280;5819;49.648;8.330;2023-05-07T08:03:12;100357.50;;;16.82;100.00
11525;BME280;5819;49.648;8.330;2023-05-07T08:05:44;100358.22;;;16.97;100.00
11525;BME280;5819;49.648;8.330;2023-05-07T08:08:12;100349.81;;;17.17;100.00
11525;BME280;5819;49.648;8.330;2023-05-07T08:10:42;100352.75;;;17.25;100.00
11525;BME280;5819;49.648;8.330;2023-05-07T08:13:19;100354.44;;;17.26;100.00
11525;BME280;5819;49.648;8.330;2023-05-07T08:15:47;100362.94;;;17.30;100.00
11525;BME280;5819;49.648;8.330;2023-05-07T08:18:15;100355.44;;;17.49;100.00
11525;BME280;5819;49.648;8.330;2023-05-07T08:20:44;100356.63;;;17.45;100.00
11525;BME280;5819;49.648;8.330;2023-05-07T08:23:17;100367.78;;;17.49;100.00
11525;BME280;5819;49.648;8.330;2023-05-07T08:25:48;100361.13;;;17.68;100.00
11525;BME280;5819;49.648;8.330;2023-05-07T08:28:17;100356.25;;;17.75;99.87
11525;BME280;5819;49.648;8.330;2023-05-07T08:30:47;100360.72;;;17.86;100.00
11525;BME280;5819;49.648;8.330;2023-05-07T08:33:14;100360.81;;;17.97;98.80
11525;BME280;5819;49.648;8.330;2023-05-07T08:35:42;100354.16;;;18.04;99.49
11525;BME280;5819;49.648;8.330;2023-05-07T08:38:13;100352.31;;;17.93;97.97
11525;BME280;5819;49.648;8.330;2023-05-07T08:40:41;100355.41;;;17.98;98.60
11525;BME280;5819;49.648;8.330;2023-05-07T08:43:18;100356.44;;;18.08;97.59
11525;BME280;5819;49.648;8.330;2023-05-07T08:45:49;100353.63;;;18.22;97.30
11525;BME280;5819;49.648;8.330;2023-05-07T08:48:21;100358.22;;;18.32;97.34
11525;BME280;5819;49.648;8.330;2023-05-07T08:50:58;100362.56;;;18.44;95.94
11525;BME280;5819;49.648;8.330;2023-05-07T08:53:26;100357.75;;;18.61;93.39
11525;BME280;5819;49.648;8.330;2023-05-07T08:55:55;100362.09;;;18.74;94.11
11525;BME280;5819;49.648;8.330;2023-05-07T08:58:24;100361.59;;;18.68;93.40
11525;BME280;5819;49.648;8.330;2023-05-07T09:00:52;100362.22;;;18.83;93.24
11525;BME280;5819;49.648;8.330;2023-05-07T09:03:22;100366.88;;;18.80;92.17
11525;BME280;5819;49.648;8.330;2023-05-07T09:05:53;100364.75;;;18.96;91.89
11525;BME280;5819;49.648;8.330;2023-05-07T09:08:24;100360.44;;;19.06;92.73
11525;BME280;5819;49.648;8.330;2023-05-07T09:10:57;100360.84;;;19.12;92.38
11525;BME280;5819;49.648;8.330;2023-05-07T09:13:27;100353.88;;;19.11;93.78
11525;BME280;5819;49.648;8.330;2023-05-07T09:15:57;100351.47;;;19.08;90.72
11525;BME280;5819;49.648;8.330;2023-05-07T09:18:25;100347.63;;;19.24;90.65
11525;BME280;5819;49.648;8.330;2023-05-07T09:20:54;100350.84;;;19.38;90.50
11525;BME280;5819;49.648;8.330;2023-05-07T09:23:23;100347.44;;;19.49;90.29
11525;BME280;5819;49.648;8.330;2023-05-07T09:26:00;100358.56;;;19.63;87.10
11525;BME280;5819;49.648;8.330;2023-05-07T09:28:33;100350.13;;;19.81;88.40
11525;BME280;5819;49.648;8.330;2023-05-07T09:31:01;100354.94;;;19.76;85.50
11525;BME280;5819;49.648;8.330;2023-05-07T09:33:29;100351.00;;;19.59;85.22
11525;BME280;5819;49.648;8.330;2023-05-07T09:36:03;100350.50;;;19.54;85.92
11525;BME280;5819;49.648;8.330;2023-05-07T09:38:32;100344.69;;;19.82;84.53
11525;BME280;5819;49.648;8.330;2023-05-07T09:41:04;100346.34;;;20.37;81.48
11525;BME280;5819;49.648;8.330;2023-05-07T09:43:40;100329.50;;;21.00;80.14
11525;BME280;5819;49.648;8.330;2023-05-07T09:46:12;100328.19;;;21.16;78.40
11525;BME280;5819;49.648;8.330;2023-05-07T09:48:46;100314.91;;;21.36;78.03
11525;BME280;5819;49.648;8.330;2023-05-07T09:51:22;100308.56;;;21.58;75.85
11525;BME280;5819;49.648;8.330;2023-05-07T09:53:54;100300.50;;;21.79;75.73
11525;BME280;5819;49.648;8.330;2023-05-07T09:56:25;100300.00;;;22.04;74.57
11525;BME280;5819;49.648;8.330;2023-05-07T09:58:56;100309.47;;;22.07;75.03
11525;BME280;5819;49.648;8.330;2023-05-07T10:01:25;100303.31;;;22.35;69.52
11525;BME280;5819;49.648;8.330;2023-05-07T10:03:55;100297.28;;;22.71;71.16
11525;BME280;5819;49.648;8.330;2023-05-07T10:06:24;100293.28;;;22.38;70.43
11525;BME280;5819;49.648;8.330;2023-05-07T10:08:52;100297.75;;;22.38;71.52
11525;BME280;5819;49.648;8.330;2023-05-07T10:11:21;100298.28;;;22.32;69.42
11525;BME280;5819;49.648;8.330;2023-05-07T10:13:51;100295.81;;;22.21;69.53
11525;BME280;5819;49.648;8.330;2023-05-07T10:16:21;100296.47;;;21.84;69.58
11525;BME280;5819;49.648;8.330;2023-05-07T10:18:50;100294.56;;;21.46;70.97
11525;BME280;5819;49.648;8.330;2023-05-07T10:21:23;100306.16;;;21.45;70.87
11525;BME280;5819;49.648;8.330;2023-05-07T10:23:58;100307.25;;;21.33;68.74
11525;BME280;5819;49.648;8.330;2023-05-07T10:26:31;100313.59;;;21.21;72.29
11525;BME280;5819;49.648;8.330;2023-05-07T10:29:04;100303.59;;;21.25;72.17
11525;BME280;5819;49.648;8.330;2023-05-07T10:31:54;100308.16;;;21.13;73.75
11525;BME280;5819;49.648;8.330;2023-05-07T10:34:29;100309.38;;;21.49;70.95
11525;BME280;5819;49.648;8.330;2023-05-07T10:36:57;100307.19;;;21.73;72.08
11525;BME280;5819;49.648;8.330;2023-05-07T10:39:27;100297.88;;;21.88;71.67
11525;BME280;5819;49.648;8.330;2023-05-07T10:41:55;100299.81;;;21.77;72.62
11525;BME280;5819;49.648;8.330;2023-05-07T10:44:26;100295.81;;;22.21;71.34
11525;BME280;5819;49.648;8.330;2023-05-07T10:47:08;100290.06;;;22.35;70.88
11525;BME280;5819;49.648;8.330;2023-05-07T10:52:40;100286.19;;;23.22;68.83
11525;BME280;5819;49.648;8.330;2023-05-07T10:55:20;100279.19;;;23.58;67.21
11525;BME280;5819;49.648;8.330;2023-05-07T10:58:25;100269.91;;;23.80;66.98
11525;BME280;5819;49.648;8.330;2023-05-07T11:01:07;100260.03;;;24.08;64.79
11525;BME280;5819;49.648;8.330;2023-05-07T11:04:12;100267.66;;;23.85;65.16
11525;BME280;5819;49.648;8.330;2023-05-07T11:09:57;100243.38;;;24.41;61.51
11525;BME280;5819;49.648;8.330;2023-05-07T11:12:52;100252.50;;;24.03;62.84
11525;BME280;5819;49.648;8.330;2023-05-07T11:15:35;100247.25;;;24.11;62.48
11525;BME280;5819;49.648;8.330;2023-05-07T11:18:09;100249.03;;;23.85;63.18
11525;BME280;5819;49.648;8.330;2023-05-07T11:20:54;100257.63;;;23.79;63.25
11525;BME280;5819;49.648;8.330;2023-05-07T11:23:54;100258.69;;;23.86;65.10
11525;BME280;5819;49.648;8.330;2023-05-07T11:26:44;100243.78;;;24.11;64.85
11525;BME280;5819;49.648;8.330;2023-05-07T11:29:14;100243.72;;;24.98;62.01
11525;BME280;5819;49.648;8.330;2023-05-07T11:31:50;100231.63;;;25.11;59.58
11525;BME280;5819;49.648;8.330;2023-05-07T11:34:21;100245.28;;;24.83;61.44
11525;BME280;5819;49.648;8.330;2023-05-07T11:36:53;100236.53;;;24.90;60.28
11525;BME280;5819;49.648;8.330;2023-05-07T11:39:32;100238.25;;;24.99;60.20
11525;BME280;5819;49.648;8.330;2023-05-07T11:42:02;100238.59;;;25.12;61.67
11525;BME280;5819;49.648;8.330;2023-05-07T11:44:43;100230.00;;;25.19;62.34
11525;BME280;5819;49.648;8.330;2023-05-07T11:47:17;100228.50;;;25.32;59.92
11525;BME280;5819;49.648;8.330;2023-05-07T11:49:47;100219.13;;;25.78;59.18
11525;BME280;5819;49.648;8.330;2023-05-07T11:52:17;100212.63;;;25.97;58.62
11525;BME280;5819;49.648;8.330;2023-05-07T11:54:49;100220.31;;;25.68;57.98
11525;BME280;5819;49.648;8.330;2023-05-07T11:57:17;100213.66;;;25.80;58.73
11525;BME280;5819;49.648;8.330;2023-05-07T11:59:45;100212.03;;;25.29;57.28
11525;BME280;5819;49.648;8.330;2023-05-07T12:02:14;100212.88;;;25.29;60.47
11525;BME280;5819;49.648;8.330;2023-05-07T12:04:42;100214.66;;;25.21;61.52
11525;BME280;5819;49.648;8.330;2023-05-07T12:07:11;100207.78;;;25.76;57.03
11525;BME280;5819;49.648;8.330;2023-05-07T12:09:41;100218.06;;;25.47;59.09
11525;BME280;5819;49.648;8.330;2023-05-07T12:12:08;100218.16;;;25.71;58.93
11525;BME280;5819;49.648;8.330;2023-05-07T12:14:40;100203.63;;;25.74;54.13
11525;BME280;5819;49.648;8.330;2023-05-07T12:17:08;100214.09;;;25.51;58.94
11525;BME280;5819;49.648;8.330;2023-05-07T12:19:38;100204.63;;;25.89;56.29
11525;BME280;5819;49.648;8.330;2023-05-07T12:22:07;100199.66;;;25.94;57.74
11525;BME280;5819;49.648;8.330;2023-05-07T12:24:48;100197.47;;;26.05;58.28
11525;BME280;5819;49.648;8.330;2023-05-07T12:27:17;100197.31;;;25.91;57.70
11525;BME280;5819;49.648;8.330;2023-05-07T12:29:46;100205.44;;;24.91;59.33
11525;BME280;5819;49.648;8.330;2023-05-07T12:32:14;100225.25;;;24.01;62.50
11525;BME280;5819;49.648;8.330;2023-05-07T12:34:43;100218.53;;;23.89;61.43
11525;BME280;5819;49.648;8.330;2023-05-07T12:37:12;100225.28;;;23.84;61.35
11525;BME280;5819;49.648;8.330;2023-05-07T12:39:46;100233.16;;;23.75;63.15
11525;BME280;5819;49.648;8.330;2023-05-07T12:42:15;100231.19;;;23.60;63.68
11525;BME280;5819;49.648;8.330;2023-05-07T12:44:45;100230.59;;;23.84;64.42
11525;BME280;5819;49.648;8.330;2023-05-07T12:47:14;100220.66;;;23.68;63.88
11525;BME280;5819;49.648;8.330;2023-05-07T12:49:43;100226.91;;;23.59;65.80
11525;BME280;5819;49.648;8.330;2023-05-07T12:52:12;100220.97;;;23.20;65.59
11525;BME280;5819;49.648;8.330;2023-05-07T12:54:40;100232.91;;;23.06;66.56
11525;BME280;5819;49.648;8.330;2023-05-07T12:57:10;100218.75;;;22.88;65.20
11525;BME280;5819;49.648;8.330;2023-05-07T12:59:39;100224.38;;;22.75;65.76
11525;BME280;5819;49.648;8.330;2023-05-07T13:02:08;100220.09;;;22.65;67.04
11525;BME280;5819;49.648;8.330;2023-05-07T13:04:38;100221.91;;;22.74;69.01
11525;BME280;5819;49.648;8.330;2023-05-07T13:07:06;100221.00;;;22.83;66.64
11525;BME280;5819;49.648;8.330;2023-05-07T13:09:35;100217.69;;;22.71;67.08
11525;BME280;5819;49.648;8.330;2023-05-07T13:12:03;100228.03;;;22.65;67.81
11525;BME280;5819;49.648;8.330;2023-05-07T13:14:34;100208.50;;;22.66;68.98
11525;BME280;5819;49.648;8.330;2023-05-07T13:17:02;100211.44;;;22.63;68.97